createdAt,value
2019-04-10T00:01:40.971Z,10.70
2019-04-10T00:04:23.114Z,10.70
2019-04-10T00:07:12.705Z,10.70
2019-04-10T00:09:49.557Z,10.70
2019-04-10T00:12:31.810Z,10.70
2019-04-10T00:15:16.044Z,10.70
2019-04-10T00:17:57.695Z,10.70
2019-04-10T00:20:39.181Z,10.60
2019-04-10T00:23:21.022Z,10.60
2019-04-10T00:26:03.525Z,10.60
2019-04-10T00:28:45.177Z,10.50
2019-04-10T00:31:26.782Z,10.50
2019-04-10T00:34:09.419Z,10.50
2019-04-10T00:36:51.292Z,10.50
2019-04-10T00:39:32.792Z,10.50
2019-04-10T00:42:03.026Z,10.50
2019-04-10T00:45:02.079Z,10.50
2019-04-10T00:47:51.073Z,10.50
2019-04-10T00:50:32.770Z,10.50
2019-04-10T00:53:17.558Z,10.40
2019-04-10T00:55:59.821Z,10.40
2019-04-10T00:58:41.806Z,10.40
2019-04-10T01:01:23.725Z,10.40
2019-04-10T01:04:06.861Z,10.30
2019-04-10T01:06:48.425Z,10.30
2019-04-10T01:09:31.116Z,10.30
2019-04-10T01:12:13.920Z,10.30
2019-04-10T01:14:56.149Z,10.30
2019-04-10T01:17:38.221Z,10.30
2019-04-10T01:20:19.916Z,10.30
2019-04-10T01:23:01.843Z,10.30
2019-04-10T01:25:43.574Z,10.30
2019-04-10T01:28:25.466Z,10.30
2019-04-10T01:31:05.174Z,10.40
2019-04-10T01:33:54.804Z,10.40
2019-04-10T01:36:56.678Z,10.40
2019-04-10T01:39:38.571Z,10.40
2019-04-10T01:42:20.678Z,10.40
2019-04-10T01:45:02.878Z,10.40
2019-04-10T01:47:44.091Z,10.30
2019-04-10T01:50:26.376Z,10.20
2019-04-10T01:53:07.817Z,10.20
2019-04-10T01:55:49.277Z,10.20
2019-04-10T01:58:31.317Z,10.30
2019-04-10T02:01:14.941Z,10.20
2019-04-10T02:03:56.335Z,10.30
2019-04-10T02:06:37.839Z,10.30
2019-04-10T02:09:19.680Z,10.30
2019-04-10T02:12:02.129Z,10.30
2019-04-10T02:14:44.700Z,10.30
2019-04-10T02:17:26.038Z,10.30
2019-04-10T02:20:08.114Z,10.40
2019-04-10T02:22:50.082Z,10.40
2019-04-10T02:25:30.602Z,10.50
2019-04-10T02:28:19.354Z,10.40
2019-04-10T02:31:00.754Z,10.30
2019-04-10T02:33:42.984Z,10.30
2019-04-10T02:36:26.852Z,10.20
2019-04-10T02:39:17.596Z,10.20
2019-04-10T02:41:56.373Z,10.30
2019-04-10T02:44:38.251Z,10.20
2019-04-10T02:47:21.123Z,10.20
2019-04-10T02:50:05.190Z,10.20
2019-04-10T02:52:48.220Z,10.20
2019-04-10T02:55:31.262Z,10.20
2019-04-10T02:58:14.221Z,10.30
2019-04-10T03:00:56.355Z,10.30
2019-04-10T03:03:38.419Z,10.40
2019-04-10T03:06:22.865Z,10.40
2019-04-10T03:09:18.941Z,10.40
2019-04-10T03:11:49.729Z,10.50
2019-04-10T03:14:32.606Z,10.40
2019-04-10T03:17:14.045Z,10.30
2019-04-10T03:19:56.069Z,10.30
2019-04-10T03:22:37.919Z,10.30
2019-04-10T03:25:19.487Z,10.30
2019-04-10T03:28:01.399Z,10.30
2019-04-10T03:30:44.338Z,10.20
2019-04-10T03:33:31.196Z,10.20
2019-04-10T03:36:11.461Z,10.20
2019-04-10T03:39:00.146Z,10.10
2019-04-10T03:41:36.601Z,10.10
2019-04-10T03:44:18.729Z,10.10
2019-04-10T03:47:00.786Z,10.10
2019-04-10T03:49:42.470Z,10.10
2019-04-10T03:52:23.639Z,10.10
2019-04-10T03:55:05.569Z,10.00
2019-04-10T03:57:47.230Z,10.10
2019-04-10T04:00:29.986Z,10.00
2019-04-10T04:03:11.419Z,10.20
2019-04-10T04:05:53.174Z,10.20
2019-04-10T04:08:35.338Z,10.20
2019-04-10T04:11:17.597Z,10.30
2019-04-10T04:13:59.794Z,10.30
2019-04-10T04:16:41.814Z,10.30
2019-04-10T04:19:24.100Z,10.20
2019-04-10T04:22:06.136Z,10.10
2019-04-10T04:24:48.196Z,10.10
2019-04-10T04:27:29.653Z,10.20
2019-04-10T04:30:12.397Z,10.20
2019-04-10T04:32:54.352Z,10.10
2019-04-10T04:35:36.620Z,10.10
2019-04-10T04:38:19.769Z,10.10
2019-04-10T04:41:04.142Z,10.20
2019-04-10T04:43:49.075Z,10.10
2019-04-10T04:46:32.383Z,10.00
2019-04-10T04:49:14.308Z,9.90
2019-04-10T04:51:56.099Z,9.90
2019-04-10T04:54:43.312Z,9.80
2019-04-10T04:57:29.153Z,9.90
2019-04-10T05:00:10.710Z,9.80
2019-04-10T05:02:53.703Z,9.80
2019-04-10T05:05:35.685Z,9.80
2019-04-10T05:08:17.442Z,9.80
2019-04-10T05:10:58.822Z,9.90
2019-04-10T05:13:40.795Z,9.90
2019-04-10T05:16:22.826Z,9.90
2019-04-10T05:19:04.924Z,9.80
2019-04-10T05:21:47.808Z,9.80
2019-04-10T05:24:30.049Z,9.80
2019-04-10T05:27:12.155Z,9.80
2019-04-10T05:29:53.894Z,9.70
2019-04-10T05:32:35.969Z,9.70
2019-04-10T05:35:17.989Z,9.70
2019-04-10T05:38:00.242Z,9.70
2019-04-10T05:40:42.237Z,9.70
2019-04-10T05:43:24.033Z,9.70
2019-04-10T05:46:05.861Z,9.60
2019-04-10T05:48:49.039Z,9.70
2019-04-10T05:51:30.946Z,9.70
2019-04-10T05:54:12.810Z,9.60
2019-04-10T05:56:54.673Z,9.60
2019-04-10T05:59:36.301Z,9.60
2019-04-10T06:02:18.173Z,9.60
2019-04-10T06:05:02.344Z,9.60
2019-04-10T06:07:48.281Z,9.50
2019-04-10T06:10:34.172Z,9.60
2019-04-10T06:13:17.432Z,9.70
2019-04-10T06:15:59.381Z,9.70
2019-04-10T06:18:40.591Z,9.60
2019-04-10T06:21:23.014Z,9.50
2019-04-10T06:24:05.841Z,9.50
2019-04-10T06:26:47.948Z,9.50
2019-04-10T06:29:30.774Z,9.40
2019-04-10T06:32:13.531Z,9.40
2019-04-10T06:34:55.410Z,9.40
2019-04-10T06:37:37.996Z,9.30
2019-04-10T06:40:23.858Z,9.30
2019-04-10T06:43:03.032Z,9.30
2019-04-10T06:45:44.212Z,9.30
2019-04-10T06:48:25.896Z,9.20
2019-04-10T06:51:08.198Z,9.30
2019-04-10T06:54:00.120Z,9.40
2019-04-10T06:56:33.433Z,9.30
2019-04-10T06:59:15.191Z,9.40
2019-04-10T07:02:11.383Z,9.40
2019-04-10T07:04:46.030Z,9.40
2019-04-10T07:07:27.178Z,9.40
2019-04-10T07:10:21.425Z,9.30
2019-04-10T07:12:49.884Z,9.30
2019-04-10T07:15:31.950Z,9.30
2019-04-10T07:18:16.783Z,9.40
2019-04-10T07:20:59.905Z,9.30
2019-04-10T07:23:40.655Z,9.20
2019-04-10T07:26:34.578Z,9.30
2019-04-10T07:29:06.190Z,9.30
2019-04-10T07:31:50.914Z,9.30
2019-04-10T07:34:32.476Z,9.40
2019-04-10T07:37:17.717Z,9.50
2019-04-10T07:39:59.760Z,9.50
2019-04-10T07:42:43.053Z,9.40
2019-04-10T07:45:27.646Z,9.60
2019-04-10T07:48:10.643Z,9.50
2019-04-10T07:50:53.551Z,9.30
2019-04-10T07:53:35.307Z,9.40
2019-04-10T07:56:20.398Z,9.20
2019-04-10T07:59:00.572Z,9.20
2019-04-10T08:01:42.447Z,9.20
2019-04-10T08:04:24.225Z,9.30
2019-04-10T08:07:05.456Z,9.20
2019-04-10T08:09:47.197Z,9.20
2019-04-10T08:12:39.369Z,9.30
2019-04-10T08:15:11.366Z,9.40
2019-04-10T08:17:53.942Z,9.40
2019-04-10T08:20:35.923Z,9.40
2019-04-10T08:23:17.687Z,9.40
2019-04-10T08:26:00.016Z,9.40
2019-04-10T08:28:41.642Z,9.50
2019-04-10T08:31:23.865Z,9.60
2019-04-10T08:34:06.565Z,9.60
2019-04-10T08:36:51.068Z,9.60
2019-04-10T08:39:37.779Z,9.70
2019-04-10T08:42:14.831Z,9.90
2019-04-10T08:44:56.422Z,9.80
2019-04-10T08:47:38.149Z,9.80
2019-04-10T08:50:20.115Z,9.90
2019-04-10T08:53:02.118Z,10.10
2019-04-10T08:55:44.145Z,10.30
2019-04-10T08:58:26.890Z,10.60
2019-04-10T09:01:09.195Z,10.70
2019-04-10T09:03:51.191Z,10.70
2019-04-10T09:06:33.605Z,10.50
2019-04-10T09:09:15.324Z,10.50
2019-04-10T09:11:57.623Z,10.40
2019-04-10T09:14:39.152Z,10.40
2019-04-10T09:17:21.024Z,10.40
2019-04-10T09:20:02.805Z,10.50
2019-04-10T09:23:07.490Z,10.60
2019-04-10T09:25:27.449Z,10.80
2019-04-10T09:28:09.194Z,11.00
2019-04-10T09:30:51.289Z,11.20
2019-04-10T09:33:33.149Z,11.10
2019-04-10T09:36:15.178Z,11.20
2019-04-10T09:38:56.950Z,11.40
2019-04-10T09:41:38.773Z,11.50
2019-04-10T09:44:18.696Z,11.40
2019-04-10T09:47:10.567Z,11.70
2019-04-10T09:49:53.471Z,11.80
2019-04-10T09:52:35.614Z,11.80
2019-04-10T09:55:18.004Z,11.60
2019-04-10T09:58:00.147Z,11.20
2019-04-10T10:00:41.797Z,11.20
2019-04-10T10:03:24.134Z,11.50
2019-04-10T10:06:05.349Z,11.50
2019-04-10T10:08:47.989Z,11.60
2019-04-10T10:11:30.615Z,11.60
2019-04-10T10:14:12.593Z,11.90
2019-04-10T10:16:54.290Z,11.90
2019-04-10T10:19:36.376Z,11.90
2019-04-10T10:22:18.050Z,12.10
2019-04-10T10:24:59.659Z,12.00
2019-04-10T10:27:40.948Z,11.90
2019-04-10T10:30:23.109Z,12.10
2019-04-10T10:33:05.609Z,12.20
2019-04-10T10:35:47.465Z,12.20
2019-04-10T10:38:29.437Z,12.20
2019-04-10T10:41:10.952Z,12.20
2019-04-10T10:43:52.992Z,12.60
2019-04-10T10:46:35.544Z,12.90
2019-04-10T10:49:18.036Z,13.30
2019-04-10T10:51:59.549Z,13.60
2019-04-10T10:54:41.393Z,13.80
2019-04-10T10:57:23.024Z,13.90
2019-04-10T11:00:04.356Z,14.10
2019-04-10T11:02:45.604Z,14.70
2019-04-10T11:05:27.358Z,15.20
2019-04-10T11:08:09.218Z,15.80
2019-04-10T11:10:55.230Z,16.00
2019-04-10T11:13:33.290Z,16.60
2019-04-10T11:16:04.316Z,17.50
2019-04-10T11:18:59.013Z,18.10
2019-04-10T11:21:47.277Z,18.30
2019-04-10T11:24:29.371Z,18.40
2019-04-10T11:27:11.970Z,18.40
2019-04-10T11:29:53.419Z,18.40
2019-04-10T11:32:36.609Z,18.40
2019-04-10T11:35:19.162Z,18.40
2019-04-10T11:38:02.816Z,18.70
2019-04-10T11:40:45.609Z,19.70
2019-04-10T11:43:27.956Z,20.50
2019-04-10T11:46:13.204Z,20.70
2019-04-10T11:48:55.427Z,20.80
2019-04-10T11:51:38.887Z,20.70
2019-04-10T11:57:06.206Z,19.40
2019-04-10T11:59:48.853Z,18.80
2019-04-10T12:02:32.287Z,18.20
2019-04-10T12:05:18.515Z,17.70
2019-04-10T12:08:22.146Z,17.00
2019-04-10T12:13:22.000Z,16.50
2019-04-10T12:16:03.657Z,16.40
2019-04-10T12:18:45.608Z,16.60
2019-04-10T12:21:27.995Z,16.60
2019-04-10T12:24:09.598Z,16.60
2019-04-10T12:26:51.915Z,16.80
2019-04-10T12:29:33.099Z,17.10
2019-04-10T12:32:14.816Z,17.20
2019-04-10T12:34:56.698Z,17.60
2019-04-10T12:37:39.185Z,18.00
2019-04-10T12:40:21.539Z,18.60
2019-04-10T12:43:03.080Z,18.70
2019-04-10T12:45:45.050Z,18.90
2019-04-10T12:48:27.032Z,19.10
2019-04-10T12:51:09.818Z,19.70
2019-04-10T12:53:51.990Z,20.10
2019-04-10T12:56:34.607Z,20.40
2019-04-10T12:59:15.866Z,20.40
2019-04-10T13:01:57.651Z,20.70
2019-04-10T13:04:38.823Z,21.50
2019-04-10T13:07:21.307Z,22.10
2019-04-10T13:10:02.949Z,22.10
2019-04-10T13:12:45.253Z,22.00
2019-04-10T13:15:27.599Z,21.30
2019-04-10T13:18:09.791Z,20.80
2019-04-10T13:20:51.402Z,20.60
2019-04-10T13:23:20.809Z,20.80
2019-04-10T13:26:10.892Z,21.00
2019-04-10T13:28:58.202Z,21.70
2019-04-10T13:31:39.673Z,22.50
2019-04-10T13:34:21.533Z,22.70
2019-04-10T13:36:51.585Z,23.50
2019-04-10T13:39:50.975Z,23.80
2019-04-10T13:42:39.617Z,24.20
2019-04-10T13:45:22.247Z,25.00
2019-04-10T13:48:03.971Z,25.30
2019-04-10T13:50:46.543Z,25.40
2019-04-10T13:53:28.390Z,24.90
2019-04-10T13:56:10.443Z,24.90
2019-04-10T13:58:52.990Z,25.70
2019-04-10T14:01:37.753Z,26.40
2019-04-10T14:04:19.921Z,25.70
2019-04-10T14:07:01.944Z,25.40
2019-04-10T14:09:48.888Z,26.50
2019-04-10T14:12:27.515Z,27.20
2019-04-10T14:15:09.837Z,27.10
2019-04-10T14:17:52.114Z,28.00
2019-04-10T14:20:35.441Z,27.20
2019-04-10T14:23:22.263Z,26.70
2019-04-10T14:26:24.447Z,27.00
2019-04-10T14:29:09.370Z,28.40
2019-04-10T14:31:56.619Z,28.70
2019-04-10T14:34:38.777Z,28.90
2019-04-10T14:37:21.183Z,29.30
2019-04-10T14:40:04.249Z,29.80
2019-04-10T14:42:47.290Z,30.50
2019-04-10T14:45:29.700Z,31.70
2019-04-10T14:48:12.312Z,29.80
2019-04-10T14:50:54.921Z,27.40
2019-04-10T14:53:37.259Z,25.30
2019-04-10T14:56:19.210Z,23.40
2019-04-10T14:58:59.739Z,22.50
2019-04-10T15:01:51.101Z,22.50
2019-04-10T15:04:51.783Z,22.30
2019-04-10T15:07:31.576Z,22.20
2019-04-10T15:10:12.979Z,21.90
2019-04-10T15:12:56.545Z,22.30
2019-04-10T15:15:38.776Z,22.80
2019-04-10T15:18:20.505Z,22.20
2019-04-10T15:21:02.802Z,22.00
2019-04-10T15:23:44.743Z,23.60
2019-04-10T15:26:26.226Z,25.40
2019-04-10T15:29:08.349Z,27.70
2019-04-10T15:31:50.286Z,28.80
2019-04-10T15:37:33.327Z,29.10
2019-04-10T15:40:20.866Z,29.70
2019-04-10T15:43:00.803Z,28.30
2019-04-10T15:45:44.092Z,26.80
2019-04-10T15:48:27.149Z,25.30
2019-04-10T15:51:08.755Z,23.70
2019-04-10T15:53:51.340Z,23.40
2019-04-10T15:56:33.906Z,23.60
2019-04-10T15:59:16.362Z,23.20
2019-04-10T16:01:57.865Z,23.20
2019-04-10T16:04:40.311Z,23.30
2019-04-10T16:07:22.554Z,24.10
2019-04-10T16:13:17.013Z,24.40
2019-04-10T16:16:01.026Z,24.40
2019-04-10T16:18:44.278Z,24.50
2019-04-10T16:21:26.915Z,24.70
2019-04-10T16:24:10.660Z,25.80
2019-04-10T16:26:41.126Z,25.60
2019-04-10T16:29:36.735Z,26.20
2019-04-10T16:32:19.243Z,25.50
2019-04-10T16:35:01.212Z,26.60
2019-04-10T16:37:44.043Z,27.30
2019-04-10T16:40:26.964Z,27.30
2019-04-10T16:43:09.015Z,26.90
2019-04-10T16:45:50.975Z,26.20
2019-04-10T16:48:33.867Z,26.50
2019-04-10T16:51:17.101Z,26.20
2019-04-10T16:54:00.089Z,25.80
2019-04-10T16:56:42.239Z,25.40
2019-04-10T16:59:23.694Z,24.30
2019-04-10T17:02:05.734Z,22.60
2019-04-10T17:04:47.989Z,20.80
2019-04-10T17:07:30.711Z,19.50
2019-04-10T17:10:19.394Z,18.40
2019-04-10T17:12:58.255Z,17.50
2019-04-10T17:15:40.146Z,16.60
2019-04-10T17:18:21.359Z,16.20
2019-04-10T17:21:02.721Z,15.80
2019-04-10T17:23:44.910Z,15.50
2019-04-10T17:26:26.699Z,15.30
2019-04-10T17:29:10.409Z,15.20
2019-04-10T17:31:52.925Z,15.10
2019-04-10T17:34:34.881Z,14.90
2019-04-10T17:37:16.355Z,14.70
2019-04-10T17:39:57.796Z,14.60
2019-04-10T17:42:39.412Z,14.50
2019-04-10T17:45:23.069Z,14.30
2019-04-10T17:48:05.266Z,14.20
2019-04-10T17:50:48.017Z,14.10
2019-04-10T17:53:29.583Z,13.90
2019-04-10T17:56:11.759Z,13.80
2019-04-10T17:58:54.053Z,13.70
2019-04-10T18:01:36.734Z,13.60
2019-04-10T18:04:18.265Z,13.50
2019-04-10T18:06:59.992Z,13.40
2019-04-10T18:09:43.060Z,13.40
2019-04-10T18:12:24.772Z,13.30
2019-04-10T18:15:06.446Z,13.20
2019-04-10T18:17:49.242Z,13.00
2019-04-10T18:20:31.632Z,13.00
2019-04-10T18:23:13.682Z,12.90
2019-04-10T18:25:55.694Z,12.80
2019-04-10T18:28:37.996Z,12.70
2019-04-10T18:31:23.560Z,12.70
2019-04-10T18:34:07.063Z,12.50
2019-04-10T18:36:48.501Z,12.50
2019-04-10T18:39:30.439Z,12.40
2019-04-10T18:42:15.130Z,12.30
2019-04-10T18:44:57.519Z,12.30
2019-04-10T18:47:39.438Z,12.20
2019-04-10T18:50:22.342Z,12.20
2019-04-10T18:53:03.811Z,12.10
2019-04-10T18:55:46.791Z,12.10
2019-04-10T18:58:31.631Z,12.00
2019-04-10T19:01:32.417Z,12.00
2019-04-10T19:04:16.515Z,11.90
2019-04-10T19:06:59.042Z,11.90
2019-04-10T19:09:41.008Z,11.80
2019-04-10T19:12:22.573Z,11.80
2019-04-10T19:15:04.478Z,11.70
2019-04-10T19:17:46.841Z,11.70
2019-04-10T19:20:29.096Z,11.70
2019-04-10T19:23:10.460Z,11.60
2019-04-10T19:25:52.136Z,11.60
2019-04-10T19:28:37.627Z,11.40
2019-04-10T19:31:21.231Z,11.30
2019-04-10T19:33:51.185Z,11.30
2019-04-10T19:36:46.595Z,11.20
2019-04-10T19:39:29.909Z,11.20
2019-04-10T19:42:11.471Z,11.20
2019-04-10T19:44:53.186Z,11.10
2019-04-10T19:47:35.191Z,11.10
2019-04-10T19:50:17.386Z,11.10
2019-04-10T19:52:59.090Z,11.00
2019-04-10T19:55:42.093Z,11.00
2019-04-10T19:58:23.414Z,10.90
2019-04-10T20:01:06.984Z,10.90
2019-04-10T20:03:48.670Z,10.90
2019-04-10T20:06:30.140Z,10.80
2019-04-10T20:09:12.482Z,10.80
2019-04-10T20:11:56.168Z,10.80
2019-04-10T20:14:38.766Z,10.70
2019-04-10T20:17:20.065Z,10.70
2019-04-10T20:20:02.750Z,10.70
2019-04-10T20:22:44.611Z,10.60
2019-04-10T20:25:26.522Z,10.60
2019-04-10T20:28:08.880Z,10.50
2019-04-10T20:30:53.732Z,10.50
2019-04-10T20:33:34.643Z,10.50
2019-04-10T20:36:17.208Z,10.40
2019-04-10T20:38:59.095Z,10.40
2019-04-10T20:41:49.812Z,10.40
2019-04-10T20:44:24.879Z,10.30
2019-04-10T20:47:06.891Z,10.30
2019-04-10T20:49:48.823Z,10.20
2019-04-10T20:52:30.392Z,10.20
2019-04-10T20:55:13.144Z,10.10
2019-04-10T20:57:54.521Z,10.10
2019-04-10T21:00:38.623Z,10.00
2019-04-10T21:03:09.262Z,10.00
2019-04-10T21:06:18.090Z,9.90
2019-04-10T21:08:59.618Z,9.90
2019-04-10T21:11:41.862Z,9.80
2019-04-10T21:14:25.980Z,9.80
2019-04-10T21:17:08.712Z,9.80
2019-04-10T21:19:50.046Z,9.80
2019-04-10T21:22:31.310Z,9.70
2019-04-10T21:25:13.308Z,9.70
2019-04-10T21:27:55.098Z,9.70
2019-04-10T21:30:42.445Z,9.70
2019-04-10T21:33:25.216Z,9.70
2019-04-10T21:36:07.241Z,9.70
2019-04-10T21:38:50.578Z,9.60
2019-04-10T21:41:32.669Z,9.60
2019-04-10T21:44:14.257Z,9.60
2019-04-10T21:46:55.806Z,9.60
2019-04-10T21:49:38.048Z,9.50
2019-04-10T21:52:20.564Z,9.50
2019-04-10T21:55:02.596Z,9.40
2019-04-10T21:57:44.790Z,9.30
2019-04-10T22:00:45.602Z,9.30
2019-04-10T22:03:27.561Z,9.20
2019-04-10T22:06:28.319Z,9.20
2019-04-10T22:09:12.656Z,9.10
2019-04-10T22:11:57.298Z,9.00
2019-04-10T22:14:39.688Z,8.90
2019-04-10T22:17:20.871Z,8.90
2019-04-10T22:20:03.367Z,8.80
2019-04-10T22:22:45.026Z,8.70
2019-04-10T22:25:27.623Z,8.60
2019-04-10T22:28:09.058Z,8.60
2019-04-10T22:30:50.935Z,8.50
2019-04-10T22:33:33.101Z,8.50
2019-04-10T22:36:15.057Z,8.50
2019-04-10T22:38:56.956Z,8.50
2019-04-10T22:41:38.661Z,8.40
2019-04-10T22:44:20.011Z,8.40
2019-04-10T22:47:01.573Z,8.40
2019-04-10T22:49:47.167Z,8.30
2019-04-10T22:52:28.606Z,8.20
2019-04-10T22:55:09.671Z,8.00
2019-04-10T22:57:54.846Z,8.00
2019-04-10T23:00:37.641Z,8.00
2019-04-10T23:03:20.230Z,7.90
2019-04-10T23:06:01.953Z,7.90
2019-04-10T23:08:44.048Z,7.90
2019-04-10T23:11:31.736Z,7.80
2019-04-10T23:14:10.150Z,7.80
2019-04-10T23:16:52.580Z,7.80
2019-04-10T23:19:34.296Z,7.80
2019-04-10T23:22:16.822Z,7.80
2019-04-10T23:24:56.550Z,7.70
2019-04-10T23:27:46.110Z,7.70
2019-04-10T23:30:48.842Z,7.70
2019-04-10T23:33:30.505Z,7.70
2019-04-10T23:36:12.469Z,7.60
2019-04-10T23:38:53.915Z,7.50
2019-04-10T23:41:35.825Z,7.50
2019-04-10T23:44:18.507Z,7.40
2019-04-10T23:47:00.355Z,7.30
2019-04-10T23:49:42.076Z,7.30
2019-04-10T23:52:24.075Z,7.30
2019-04-10T23:55:05.891Z,7.30
2019-04-10T23:57:47.499Z,7.20
